Big Bear Station Historical Data
Daily Summary for February 6, 2019 Units:  English    Metric   Both
Next Day »
Daily Weekly Monthly Yearly Custom
  High: Low: Average:
Temperature: 27.3 °F 9.7 °F 18.2 °F
Dew Point: 18.7 °F 8.6 °F 14.4 °F
Humidity: 95% 67% 85%
Wind Speed: 4.7mph 0.0mph 1.2mph
Wind Gust: -999.0mph - -
Wind- - WNW
Pressure: 23.46 in 23.29 in -
Precipitation: 0.00 in    
Historical Graphs
 
 
Tabular Data for February 6, 2019
Time Temperature Dew Point Pressure Wind Wind Speed Wind Gust Humidity Rainfall Rate (Hourly)
08:13 15.4 °F 10.9 °F 23.29 in NW 2.7 mph -999.0 mph 82% 0.00 in
08:28 15.8 °F 11.6 °F 23.30 in NNE 1.1 mph -999.0 mph 83% 0.00 in
08:43 16.0 °F 11.8 °F 23.30 in NNW 3.2 mph -999.0 mph 83% 0.00 in
08:58 16.3 °F 12.0 °F 23.30 in North 1.7 mph -999.0 mph 83% 0.00 in
09:13 16.7 °F 12.2 °F 23.30 in West 4.7 mph -999.0 mph 82% 0.00 in
09:29 17.2 °F 12.1 °F 23.31 in NW 2.2 mph -999.0 mph 80% 0.00 in
09:44 17.8 °F 12.7 °F 23.31 in West 2.7 mph -999.0 mph 80% 0.00 in
09:59 18.3 °F 13.2 °F 23.32 in NW 2.7 mph -999.0 mph 80% 0.00 in
10:14 19.2 °F 13.5 °F 23.32 in ENE 1.7 mph -999.0 mph 78% 0.00 in
10:29 19.8 °F 14.3 °F 23.33 in Calm   -999.0 mph 79% 0.00 in
10:45 20.5 °F 14.4 °F 23.33 in NNW 3.7 mph -999.0 mph 77% 0.00 in
11:01 21.0 °F 15.5 °F 23.34 in NW 4.2 mph -999.0 mph 79% 0.00 in
11:16 22.3 °F 15.9 °F 23.34 in North 2.7 mph -999.0 mph 76% 0.00 in
11:31 22.6 °F 16.8 °F 23.34 in South 2.2 mph -999.0 mph 78% 0.00 in
11:47 22.5 °F 17.3 °F 23.33 in NW 4.2 mph -999.0 mph 80% 0.00 in
12:02 23.0 °F 17.2 °F 23.33 in West 4.7 mph -999.0 mph 78% 0.00 in
12:18 25.2 °F 18.7 °F 23.33 in Calm   -999.0 mph 76% 0.00 in
12:33 25.3 °F 18.2 °F 23.33 in NNW 4.2 mph -999.0 mph 74% 0.00 in
12:49 27.3 °F 17.8 °F 23.33 in NNW 1.7 mph -999.0 mph 67% 0.00 in
13:04 26.2 °F 17.7 °F 23.33 in Calm   -999.0 mph 70% 0.00 in
13:19 24.1 °F 15.7 °F 23.33 in NNW 1.1 mph -999.0 mph 70% 0.00 in
13:35 22.8 °F 16.4 °F 23.33 in Calm   -999.0 mph 76% 0.00 in
13:50 22.6 °F 16.2 °F 23.33 in NW 3.2 mph -999.0 mph 76% 0.00 in
14:05 22.3 °F 16.8 °F 23.33 in NW 3.2 mph -999.0 mph 79% 0.00 in
14:20 22.5 °F 17.3 °F 23.33 in NW 2.2 mph -999.0 mph 80% 0.00 in
14:36 21.7 °F 14.7 °F 23.33 in Calm   -999.0 mph 74% 0.00 in
14:51 21.9 °F 16.1 °F 23.33 in NW 2.2 mph -999.0 mph 78% 0.00 in
15:06 22.3 °F 16.8 °F 23.33 in NNE 1.7 mph -999.0 mph 79% 0.00 in
15:21 22.6 °F 16.8 °F 23.34 in NW 1.7 mph -999.0 mph 78% 0.00 in
15:36 22.5 °F 15.8 °F 23.34 in NNW 2.7 mph -999.0 mph 75% 0.00 in
15:52 21.7 °F 16.5 °F 23.34 in NW 1.7 mph -999.0 mph 80% 0.00 in
16:07 21.9 °F 17.3 °F 23.34 in Calm   -999.0 mph 82% 0.00 in
16:22 21.6 °F 17.8 °F 23.34 in North 3.2 mph -999.0 mph 85% 0.00 in
16:37 21.4 °F 17.9 °F 23.35 in NW 2.7 mph -999.0 mph 86% 0.00 in
16:52 20.7 °F 17.7 °F 23.35 in Calm   -999.0 mph 88% 0.00 in
17:08 20.1 °F 17.6 °F 23.36 in Calm   -999.0 mph 90% 0.00 in
17:23 20.1 °F 17.6 °F 23.37 in Calm   -999.0 mph 90% 0.00 in
17:38 19.9 °F 17.7 °F 23.37 in Calm   -999.0 mph 91% 0.00 in
17:53 19.8 °F 17.6 °F 23.37 in Calm   -999.0 mph 91% 0.00 in
18:08 19.4 °F 17.5 °F 23.37 in Calm   -999.0 mph 92% 0.00 in
18:24 18.9 °F 17.0 °F 23.37 in Calm   -999.0 mph 92% 0.00 in
18:39 18.3 °F 16.4 °F 23.38 in Calm   -999.0 mph 92% 0.00 in
18:55 18.1 °F 16.2 °F 23.39 in Calm   -999.0 mph 92% 0.00 in
19:10 17.4 °F 15.5 °F 23.39 in Calm   -999.0 mph 92% 0.00 in
19:25 16.7 °F 15.0 °F 23.39 in SSE 2.2 mph -999.0 mph 93% 0.00 in
19:40 16.0 °F 14.3 °F 23.40 in Calm   -999.0 mph 93% 0.00 in
19:56 15.4 °F 14.0 °F 23.40 in Calm   -999.0 mph 94% 0.00 in
20:11 14.7 °F 13.3 °F 23.40 in Calm   -999.0 mph 94% 0.00 in
20:26 14.2 °F 12.8 °F 23.41 in Calm   -999.0 mph 94% 0.00 in
20:41 13.8 °F 12.6 °F 23.42 in Calm   -999.0 mph 95% 0.00 in
20:56 13.6 °F 12.4 °F 23.42 in Calm   -999.0 mph 95% 0.00 in
21:12 13.1 °F 11.9 °F 23.42 in Calm   -999.0 mph 95% 0.00 in
21:27 12.4 °F 11.0 °F 23.43 in Calm   -999.0 mph 94% 0.00 in
21:42 11.8 °F 10.4 °F 23.43 in Calm   -999.0 mph 94% 0.00 in
21:57 11.5 °F 10.1 °F 23.44 in Calm   -999.0 mph 94% 0.00 in
22:12 10.9 °F 9.5 °F 23.44 in Calm   -999.0 mph 94% 0.00 in
22:28 10.8 °F 9.4 °F 23.45 in Calm   -999.0 mph 94% 0.00 in
22:43 10.4 °F 9.0 °F 23.45 in Calm   -999.0 mph 94% 0.00 in
22:58 10.2 °F 9.1 °F 23.45 in Calm   -999.0 mph 95% 0.00 in
23:13 10.2 °F 9.1 °F 23.46 in Calm   -999.0 mph 95% 0.00 in
23:28 9.9 °F 8.8 °F 23.46 in Calm   -999.0 mph 95% 0.00 in
23:44 9.7 °F 8.6 °F 23.46 in Calm   -999.0 mph 95% 0.00 in
23:59 9.7 °F 8.6 °F 23.46 in Calm   -999.0 mph 95% 0.00 in
Big Bear CA Weather